Ozark Regional Airport Mountain Home US
ICAO: KBPK
IATA: WMH
Category: Medium
Scheduled Services: No

Elevation: 928 ft
TransAlt. 18000 ft.

Airport Communications:
ASOS:133.975
MEMPHIS CNTR:126.85
CTAF/UNICOM:123

KBPK Zoom In..

Runways:

(A) RW 05 length 5001 ft width 75 ft
ILS 111.95 / hdg 49

(B) RW 23 length 5001 ft width 75 ft
---- / hdg 229

Location; KBPK
Day. 26 / Time. 14.00 Zulu
* Altimeter: 29.90
* Temperature: 21° c. 69.8°f.
* Wind from: 000° Speed 00 kn.
Dewpoint: 21° c.
Visibility: 10 Statute Miles.
Clouds: Few 400 ft.

KBPK 261400Z AUTO 00000KT 10SM FEW004 21/21 A2990 RMK AO2 T02110206


Wind - Calm.

 
 
jpsmedia.com for Web Design SOUNDCLOUD worldairports.se 2018   terms of use